RJNH(METAR)
06/28 22:00
METAR RJNH 281300Z VRB01KT 6000 FEW010 SCT120 21/20 Q1013 RMK 1ST010
3AC120 A2994=
戻る
トップページへ戻る
IMOC Co,.Ltd.